sensor_id;sensor_type;location;lat;lon;timestamp;temperature;humidity
70456;DHT22;57916;51.996;5.180;2023-07-02T00:00:01;21.30;64.10
70456;DHT22;57916;51.996;5.180;2023-07-02T00:02:35;21.10;64.00
70456;DHT22;57916;51.996;5.180;2023-07-02T00:05:02;21.00;65.40
70456;DHT22;57916;51.996;5.180;2023-07-02T00:07:29;20.90;65.80
70456;DHT22;57916;51.996;5.180;2023-07-02T00:09:56;20.90;66.70
70456;DHT22;57916;51.996;5.180;2023-07-02T00:12:23;20.80;66.80
70456;DHT22;57916;51.996;5.180;2023-07-02T00:14:50;20.80;66.90
70456;DHT22;57916;51.996;5.180;2023-07-02T00:17:20;20.80;67.90
70456;DHT22;57916;51.996;5.180;2023-07-02T00:19:48;20.80;67.00
70456;DHT22;57916;51.996;5.180;2023-07-02T00:22:20;20.80;66.90
70456;DHT22;57916;51.996;5.180;2023-07-02T00:24:47;20.70;67.10
70456;DHT22;57916;51.996;5.180;2023-07-02T00:27:14;20.70;68.10
70456;DHT22;57916;51.996;5.180;2023-07-02T00:29:41;20.70;68.00
70456;DHT22;57916;51.996;5.180;2023-07-02T00:32:08;20.70;68.90
70456;DHT22;57916;51.996;5.180;2023-07-02T00:34:35;20.70;68.30
70456;DHT22;57916;51.996;5.180;2023-07-02T00:37:02;20.70;68.60
70456;DHT22;57916;51.996;5.180;2023-07-02T00:39:29;20.70;69.20
70456;DHT22;57916;51.996;5.180;2023-07-02T00:42:03;20.70;68.60
70456;DHT22;57916;51.996;5.180;2023-07-02T00:44:31;20.80;69.20
70456;DHT22;57916;51.996;5.180;2023-07-02T00:46:58;20.80;69.10
70456;DHT22;57916;51.996;5.180;2023-07-02T00:49:25;20.80;68.50
70456;DHT22;57916;51.996;5.180;2023-07-02T00:51:53;20.80;68.50
70456;DHT22;57916;51.996;5.180;2023-07-02T00:54:20;20.80;68.30
70456;DHT22;57916;51.996;5.180;2023-07-02T00:56:48;20.80;68.30
70456;DHT22;57916;51.996;5.180;2023-07-02T00:59:15;20.80;68.50
70456;DHT22;57916;51.996;5.180;2023-07-02T01:01:42;20.80;68.60
70456;DHT22;57916;51.996;5.180;2023-07-02T01:04:09;20.80;69.00
70456;DHT22;57916;51.996;5.180;2023-07-02T01:06:37;20.80;69.30
70456;DHT22;57916;51.996;5.180;2023-07-02T01:09:09;20.80;69.10
70456;DHT22;57916;51.996;5.180;2023-07-02T01:12:00;20.80;70.00
70456;DHT22;57916;51.996;5.180;2023-07-02T01:14:32;20.80;69.50
70456;DHT22;57916;51.996;5.180;2023-07-02T01:17:02;20.80;69.90
70456;DHT22;57916;51.996;5.180;2023-07-02T01:22:08;20.80;69.60
70456;DHT22;57916;51.996;5.180;2023-07-02T01:24:38;20.80;69.30
70456;DHT22;57916;51.996;5.180;2023-07-02T01:27:05;20.70;69.40
70456;DHT22;57916;51.996;5.180;2023-07-02T01:29:32;20.70;69.60
70456;DHT22;57916;51.996;5.180;2023-07-02T01:32:03;20.80;69.80
70456;DHT22;57916;51.996;5.180;2023-07-02T01:34:31;20.80;69.50
70456;DHT22;57916;51.996;5.180;2023-07-02T01:36:58;20.70;69.00
70456;DHT22;57916;51.996;5.180;2023-07-02T01:39:25;20.70;68.60
70456;DHT22;57916;51.996;5.180;2023-07-02T01:41:54;20.70;68.70
70456;DHT22;57916;51.996;5.180;2023-07-02T01:44:22;20.60;68.70
70456;DHT22;57916;51.996;5.180;2023-07-02T01:46:49;20.60;68.40
70456;DHT22;57916;51.996;5.180;2023-07-02T01:49:16;20.60;68.10
70456;DHT22;57916;51.996;5.180;2023-07-02T01:51:51;20.60;67.60
70456;DHT22;57916;51.996;5.180;2023-07-02T01:54:19;20.50;67.40
70456;DHT22;57916;51.996;5.180;2023-07-02T01:56:46;20.50;67.30
70456;DHT22;57916;51.996;5.180;2023-07-02T01:59:14;20.50;67.80
70456;DHT22;57916;51.996;5.180;2023-07-02T02:01:41;20.40;68.50
70456;DHT22;57916;51.996;5.180;2023-07-02T02:04:09;20.40;68.30
70456;DHT22;57916;51.996;5.180;2023-07-02T02:06:37;20.30;68.60
70456;DHT22;57916;51.996;5.180;2023-07-02T02:09:05;20.30;68.70
70456;DHT22;57916;51.996;5.180;2023-07-02T02:11:33;20.30;68.00
70456;DHT22;57916;51.996;5.180;2023-07-02T02:14:00;20.20;67.50
70456;DHT22;57916;51.996;5.180;2023-07-02T02:16:30;20.20;66.60
70456;DHT22;57916;51.996;5.180;2023-07-02T02:18:57;20.10;66.80
70456;DHT22;57916;51.996;5.180;2023-07-02T02:21:24;20.10;67.10
70456;DHT22;57916;51.996;5.180;2023-07-02T02:23:51;20.10;66.60
70456;DHT22;57916;51.996;5.180;2023-07-02T02:26:18;20.10;66.70
70456;DHT22;57916;51.996;5.180;2023-07-02T02:28:48;20.10;66.70
70456;DHT22;57916;51.996;5.180;2023-07-02T02:31:16;20.10;66.40
70456;DHT22;57916;51.996;5.180;2023-07-02T02:33:43;20.10;66.90
70456;DHT22;57916;51.996;5.180;2023-07-02T02:36:11;20.10;66.60
70456;DHT22;57916;51.996;5.180;2023-07-02T02:38:38;20.10;66.30
70456;DHT22;57916;51.996;5.180;2023-07-02T02:41:06;20.10;66.30
70456;DHT22;57916;51.996;5.180;2023-07-02T02:43:42;20.10;65.80
70456;DHT22;57916;51.996;5.180;2023-07-02T02:46:11;20.00;65.10
70456;DHT22;57916;51.996;5.180;2023-07-02T02:48:39;20.00;65.30
70456;DHT22;57916;51.996;5.180;2023-07-02T02:51:06;20.00;65.30
70456;DHT22;57916;51.996;5.180;2023-07-02T02:53:33;19.90;65.10
70456;DHT22;57916;51.996;5.180;2023-07-02T02:56:00;19.90;65.90
70456;DHT22;57916;51.996;5.180;2023-07-02T02:58:27;19.90;65.50
70456;DHT22;57916;51.996;5.180;2023-07-02T03:00:54;19.90;65.70
70456;DHT22;57916;51.996;5.180;2023-07-02T03:03:22;19.80;65.80
70456;DHT22;57916;51.996;5.180;2023-07-02T03:05:51;19.80;65.90
70456;DHT22;57916;51.996;5.180;2023-07-02T03:08:18;19.80;66.20
70456;DHT22;57916;51.996;5.180;2023-07-02T03:10:45;19.70;65.70
70456;DHT22;57916;51.996;5.180;2023-07-02T03:13:12;19.70;65.60
70456;DHT22;57916;51.996;5.180;2023-07-02T03:15:39;19.70;66.20
70456;DHT22;57916;51.996;5.180;2023-07-02T03:18:06;19.70;66.00
70456;DHT22;57916;51.996;5.180;2023-07-02T03:20:34;19.60;65.50
70456;DHT22;57916;51.996;5.180;2023-07-02T03:23:01;19.60;65.90
70456;DHT22;57916;51.996;5.180;2023-07-02T03:25:28;19.60;65.40
70456;DHT22;57916;51.996;5.180;2023-07-02T03:27:55;19.60;65.20
70456;DHT22;57916;51.996;5.180;2023-07-02T03:30:22;19.60;65.10
70456;DHT22;57916;51.996;5.180;2023-07-02T03:32:49;19.60;65.50
70456;DHT22;57916;51.996;5.180;2023-07-02T03:35:16;19.50;65.20
70456;DHT22;57916;51.996;5.180;2023-07-02T03:37:43;19.50;65.40
70456;DHT22;57916;51.996;5.180;2023-07-02T03:40:10;19.40;65.50
70456;DHT22;57916;51.996;5.180;2023-07-02T03:42:38;19.40;65.20
70456;DHT22;57916;51.996;5.180;2023-07-02T03:45:05;19.40;64.70
70456;DHT22;57916;51.996;5.180;2023-07-02T03:47:32;19.30;65.10
70456;DHT22;57916;51.996;5.180;2023-07-02T03:49:59;19.30;65.00
70456;DHT22;57916;51.996;5.180;2023-07-02T03:52:27;19.30;64.60
70456;DHT22;57916;51.996;5.180;2023-07-02T03:54:54;19.30;64.10
70456;DHT22;57916;51.996;5.180;2023-07-02T03:57:20;19.20;64.00
70456;DHT22;57916;51.996;5.180;2023-07-02T03:59:47;19.20;64.00
70456;DHT22;57916;51.996;5.180;2023-07-02T04:02:15;19.20;64.10
70456;DHT22;57916;51.996;5.180;2023-07-02T04:04:42;19.20;63.80
70456;DHT22;57916;51.996;5.180;2023-07-02T04:07:09;19.20;64.40
70456;DHT22;57916;51.996;5.180;2023-07-02T04:09:36;19.20;64.10
70456;DHT22;57916;51.996;5.180;2023-07-02T04:12:04;19.20;64.70
70456;DHT22;57916;51.996;5.180;2023-07-02T04:14:31;19.20;64.50
70456;DHT22;57916;51.996;5.180;2023-07-02T04:16:58;19.20;64.10
70456;DHT22;57916;51.996;5.180;2023-07-02T04:19:25;19.20;64.40
70456;DHT22;57916;51.996;5.180;2023-07-02T04:21:52;19.20;64.70
70456;DHT22;57916;51.996;5.180;2023-07-02T04:24:19;19.20;64.50
70456;DHT22;57916;51.996;5.180;2023-07-02T04:26:46;19.20;64.10
70456;DHT22;57916;51.996;5.180;2023-07-02T04:29:33;19.20;64.30
70456;DHT22;57916;51.996;5.180;2023-07-02T04:32:00;19.20;64.50
70456;DHT22;57916;51.996;5.180;2023-07-02T04:34:27;19.20;64.60
70456;DHT22;57916;51.996;5.180;2023-07-02T04:36:54;19.20;64.80
70456;DHT22;57916;51.996;5.180;2023-07-02T04:39:21;19.20;64.30
70456;DHT22;57916;51.996;5.180;2023-07-02T04:41:48;19.20;64.80
70456;DHT22;57916;51.996;5.180;2023-07-02T04:44:19;19.30;64.70
70456;DHT22;57916;51.996;5.180;2023-07-02T04:46:48;19.30;64.40
70456;DHT22;57916;51.996;5.180;2023-07-02T04:49:15;19.30;64.20
70456;DHT22;57916;51.996;5.180;2023-07-02T04:51:42;19.30;64.40
70456;DHT22;57916;51.996;5.180;2023-07-02T04:54:09;19.30;64.20
70456;DHT22;57916;51.996;5.180;2023-07-02T04:56:36;19.30;64.10
70456;DHT22;57916;51.996;5.180;2023-07-02T04:59:03;19.40;63.60
70456;DHT22;57916;51.996;5.180;2023-07-02T05:01:30;19.40;63.40
70456;DHT22;57916;51.996;5.180;2023-07-02T05:03:57;19.40;63.30
70456;DHT22;57916;51.996;5.180;2023-07-02T05:06:24;19.40;63.60
70456;DHT22;57916;51.996;5.180;2023-07-02T05:08:51;19.40;63.50
70456;DHT22;57916;51.996;5.180;2023-07-02T05:11:19;19.40;63.50
70456;DHT22;57916;51.996;5.180;2023-07-02T05:13:46;19.50;63.60
70456;DHT22;57916;51.996;5.180;2023-07-02T05:16:14;19.40;63.20
70456;DHT22;57916;51.996;5.180;2023-07-02T05:18:41;19.50;63.40
70456;DHT22;57916;51.996;5.180;2023-07-02T05:21:08;19.50;63.60
70456;DHT22;57916;51.996;5.180;2023-07-02T05:23:35;19.50;63.70
70456;DHT22;57916;51.996;5.180;2023-07-02T05:26:02;19.60;63.70
70456;DHT22;57916;51.996;5.180;2023-07-02T05:28:29;19.60;63.70
70456;DHT22;57916;51.996;5.180;2023-07-02T05:30:56;19.70;63.50
70456;DHT22;57916;51.996;5.180;2023-07-02T05:33:23;19.80;63.60
70456;DHT22;57916;51.996;5.180;2023-07-02T05:35:50;19.80;63.40
70456;DHT22;57916;51.996;5.180;2023-07-02T05:38:18;19.90;63.20
70456;DHT22;57916;51.996;5.180;2023-07-02T05:40:46;19.90;63.20
70456;DHT22;57916;51.996;5.180;2023-07-02T05:43:13;19.90;62.70
70456;DHT22;57916;51.996;5.180;2023-07-02T05:45:40;20.00;62.70
70456;DHT22;57916;51.996;5.180;2023-07-02T05:48:07;20.00;62.90
70456;DHT22;57916;51.996;5.180;2023-07-02T05:50:34;20.10;62.20
70456;DHT22;57916;51.996;5.180;2023-07-02T05:53:01;20.10;61.60
70456;DHT22;57916;51.996;5.180;2023-07-02T05:55:28;20.10;61.80
70456;DHT22;57916;51.996;5.180;2023-07-02T05:57:55;20.10;62.10
70456;DHT22;57916;51.996;5.180;2023-07-02T06:00:24;20.20;61.90
70456;DHT22;57916;51.996;5.180;2023-07-02T06:02:51;20.30;63.20
70456;DHT22;57916;51.996;5.180;2023-07-02T06:05:18;20.30;62.00
70456;DHT22;57916;51.996;5.180;2023-07-02T06:07:45;20.30;61.20
70456;DHT22;57916;51.996;5.180;2023-07-02T06:10:12;20.40;61.10
70456;DHT22;57916;51.996;5.180;2023-07-02T06:12:39;20.30;61.50
70456;DHT22;57916;51.996;5.180;2023-07-02T06:15:06;20.40;61.40
70456;DHT22;57916;51.996;5.180;2023-07-02T06:17:34;20.40;61.20
70456;DHT22;57916;51.996;5.180;2023-07-02T06:20:03;20.40;60.90
70456;DHT22;57916;51.996;5.180;2023-07-02T06:22:34;20.50;62.00
70456;DHT22;57916;51.996;5.180;2023-07-02T06:25:01;20.60;61.60
70456;DHT22;57916;51.996;5.180;2023-07-02T06:27:31;20.70;61.10
70456;DHT22;57916;51.996;5.180;2023-07-02T06:29:58;20.70;61.30
70456;DHT22;57916;51.996;5.180;2023-07-02T06:32:25;20.80;61.20
70456;DHT22;57916;51.996;5.180;2023-07-02T06:34:52;20.80;60.60
70456;DHT22;57916;51.996;5.180;2023-07-02T06:37:19;20.80;60.30
70456;DHT22;57916;51.996;5.180;2023-07-02T06:39:46;20.90;60.10
70456;DHT22;57916;51.996;5.180;2023-07-02T06:42:13;20.90;60.10
70456;DHT22;57916;51.996;5.180;2023-07-02T06:44:41;21.00;59.40
70456;DHT22;57916;51.996;5.180;2023-07-02T06:47:08;20.90;58.50
70456;DHT22;57916;51.996;5.180;2023-07-02T06:49:36;20.80;58.10
70456;DHT22;57916;51.996;5.180;2023-07-02T06:52:03;20.80;58.10
70456;DHT22;57916;51.996;5.180;2023-07-02T06:54:30;20.80;58.20
70456;DHT22;57916;51.996;5.180;2023-07-02T06:56:57;20.80;57.40
70456;DHT22;57916;51.996;5.180;2023-07-02T06:59:24;20.70;58.50
70456;DHT22;57916;51.996;5.180;2023-07-02T07:01:51;20.80;58.10
70456;DHT22;57916;51.996;5.180;2023-07-02T07:04:18;20.80;57.90
70456;DHT22;57916;51.996;5.180;2023-07-02T07:06:45;20.90;58.40
70456;DHT22;57916;51.996;5.180;2023-07-02T07:09:12;21.00;58.50
70456;DHT22;57916;51.996;5.180;2023-07-02T07:11:39;21.10;57.20
70456;DHT22;57916;51.996;5.180;2023-07-02T07:14:06;21.20;56.50
70456;DHT22;57916;51.996;5.180;2023-07-02T07:16:33;21.30;55.70
70456;DHT22;57916;51.996;5.180;2023-07-02T07:19:01;21.40;55.50
70456;DHT22;57916;51.996;5.180;2023-07-02T07:21:28;21.40;54.80
70456;DHT22;57916;51.996;5.180;2023-07-02T07:23:55;21.40;53.90
70456;DHT22;57916;51.996;5.180;2023-07-02T07:26:22;21.40;55.30
70456;DHT22;57916;51.996;5.180;2023-07-02T07:28:49;21.50;53.10
70456;DHT22;57916;51.996;5.180;2023-07-02T07:31:16;21.60;52.60
70456;DHT22;57916;51.996;5.180;2023-07-02T07:33:43;21.70;51.20
70456;DHT22;57916;51.996;5.180;2023-07-02T07:36:10;21.90;51.20
70456;DHT22;57916;51.996;5.180;2023-07-02T07:38:37;22.10;51.80
70456;DHT22;57916;51.996;5.180;2023-07-02T07:41:04;22.30;50.70
70456;DHT22;57916;51.996;5.180;2023-07-02T07:43:31;22.50;49.20
70456;DHT22;57916;51.996;5.180;2023-07-02T07:45:58;22.60;48.40
70456;DHT22;57916;51.996;5.180;2023-07-02T07:48:26;22.60;48.80
70456;DHT22;57916;51.996;5.180;2023-07-02T07:50:53;22.60;48.60
70456;DHT22;57916;51.996;5.180;2023-07-02T07:53:20;22.60;48.50
70456;DHT22;57916;51.996;5.180;2023-07-02T07:55:47;22.60;47.20
70456;DHT22;57916;51.996;5.180;2023-07-02T07:58:14;22.70;47.30
70456;DHT22;57916;51.996;5.180;2023-07-02T08:00:41;22.90;48.40
70456;DHT22;57916;51.996;5.180;2023-07-02T08:03:09;23.10;47.40
70456;DHT22;57916;51.996;5.180;2023-07-02T08:05:36;23.30;46.00
70456;DHT22;57916;51.996;5.180;2023-07-02T08:08:03;23.30;46.00
70456;DHT22;57916;51.996;5.180;2023-07-02T08:10:30;23.20;44.00
70456;DHT22;57916;51.996;5.180;2023-07-02T08:12:57;23.30;44.90
70456;DHT22;57916;51.996;5.180;2023-07-02T08:15:24;23.40;45.20
70456;DHT22;57916;51.996;5.180;2023-07-02T08:17:51;23.60;45.20
70456;DHT22;57916;51.996;5.180;2023-07-02T08:20:21;23.80;44.90
70456;DHT22;57916;51.996;5.180;2023-07-02T08:22:48;24.00;44.80
70456;DHT22;57916;51.996;5.180;2023-07-02T08:25:15;24.00;43.20
70456;DHT22;57916;51.996;5.180;2023-07-02T08:27:44;24.00;43.10
70456;DHT22;57916;51.996;5.180;2023-07-02T08:30:11;24.00;43.10
70456;DHT22;57916;51.996;5.180;2023-07-02T08:32:38;24.00;42.40
70456;DHT22;57916;51.996;5.180;2023-07-02T08:35:05;24.10;42.20
70456;DHT22;57916;51.996;5.180;2023-07-02T08:37:32;24.10;41.60
70456;DHT22;57916;51.996;5.180;2023-07-02T08:39:59;24.00;40.40
70456;DHT22;57916;51.996;5.180;2023-07-02T08:42:26;24.00;41.10
70456;DHT22;57916;51.996;5.180;2023-07-02T08:44:57;24.20;42.60
70456;DHT22;57916;51.996;5.180;2023-07-02T08:47:25;24.40;41.60
70456;DHT22;57916;51.996;5.180;2023-07-02T08:49:53;24.70;40.70
70456;DHT22;57916;51.996;5.180;2023-07-02T08:52:20;25.00;39.60
70456;DHT22;57916;51.996;5.180;2023-07-02T08:54:47;25.20;39.50
70456;DHT22;57916;51.996;5.180;2023-07-02T08:57:14;25.40;40.50
70456;DHT22;57916;51.996;5.180;2023-07-02T08:59:40;25.50;39.40
70456;DHT22;57916;51.996;5.180;2023-07-02T09:02:07;25.70;38.30
70456;DHT22;57916;51.996;5.180;2023-07-02T09:04:34;25.70;36.70
70456;DHT22;57916;51.996;5.180;2023-07-02T09:07:09;25.60;36.30
70456;DHT22;57916;51.996;5.180;2023-07-02T09:09:46;25.40;35.90
70456;DHT22;57916;51.996;5.180;2023-07-02T09:12:30;25.20;36.30
70456;DHT22;57916;51.996;5.180;2023-07-02T09:15:01;24.90;36.80
70456;DHT22;57916;51.996;5.180;2023-07-02T09:17:46;24.90;37.60
70456;DHT22;57916;51.996;5.180;2023-07-02T09:20:13;25.00;36.30
70456;DHT22;57916;51.996;5.180;2023-07-02T09:22:40;25.10;35.90
70456;DHT22;57916;51.996;5.180;2023-07-02T09:25:07;25.10;35.90
70456;DHT22;57916;51.996;5.180;2023-07-02T09:27:37;25.30;36.80
70456;DHT22;57916;51.996;5.180;2023-07-02T09:32:36;25.70;35.50
70456;DHT22;57916;51.996;5.180;2023-07-02T09:35:05;25.80;34.60
70456;DHT22;57916;51.996;5.180;2023-07-02T09:37:32;26.00;35.00
70456;DHT22;57916;51.996;5.180;2023-07-02T09:40:00;26.10;34.00
70456;DHT22;57916;51.996;5.180;2023-07-02T09:42:28;26.20;34.10
70456;DHT22;57916;51.996;5.180;2023-07-02T09:44:58;26.10;34.30
70456;DHT22;57916;51.996;5.180;2023-07-02T09:47:27;26.00;33.40
70456;DHT22;57916;51.996;5.180;2023-07-02T09:50:03;26.00;32.20
70456;DHT22;57916;51.996;5.180;2023-07-02T09:52:33;26.00;31.70
70456;DHT22;57916;51.996;5.180;2023-07-02T09:55:01;25.80;33.60
70456;DHT22;57916;51.996;5.180;2023-07-02T09:57:28;25.90;33.70
70456;DHT22;57916;51.996;5.180;2023-07-02T10:00:02;25.80;32.60
70456;DHT22;57916;51.996;5.180;2023-07-02T10:02:31;25.60;34.30
70456;DHT22;57916;51.996;5.180;2023-07-02T10:04:59;25.70;35.50
70456;DHT22;57916;51.996;5.180;2023-07-02T10:07:27;25.90;34.00
70456;DHT22;57916;51.996;5.180;2023-07-02T10:09:55;26.10;32.10
70456;DHT22;57916;51.996;5.180;2023-07-02T10:12:26;26.20;31.10
70456;DHT22;57916;51.996;5.180;2023-07-02T10:14:56;26.20;31.30
70456;DHT22;57916;51.996;5.180;2023-07-02T10:17:30;26.40;31.70
70456;DHT22;57916;51.996;5.180;2023-07-02T10:20:03;26.50;31.10
70456;DHT22;57916;51.996;5.180;2023-07-02T10:22:44;26.70;29.80
70456;DHT22;57916;51.996;5.180;2023-07-02T10:25:12;27.00;32.30
70456;DHT22;57916;51.996;5.180;2023-07-02T10:27:50;27.30;30.70
70456;DHT22;57916;51.996;5.180;2023-07-02T10:30:17;27.60;30.70
70456;DHT22;57916;51.996;5.180;2023-07-02T10:32:44;27.70;30.00
70456;DHT22;57916;51.996;5.180;2023-07-02T10:35:18;27.80;29.30
70456;DHT22;57916;51.996;5.180;2023-07-02T10:37:45;28.00;29.80
70456;DHT22;57916;51.996;5.180;2023-07-02T10:40:12;28.10;29.20
70456;DHT22;57916;51.996;5.180;2023-07-02T10:42:46;28.20;29.50
70456;DHT22;57916;51.996;5.180;2023-07-02T10:45:13;28.30;29.80
70456;DHT22;57916;51.996;5.180;2023-07-02T10:47:41;28.40;28.80
70456;DHT22;57916;51.996;5.180;2023-07-02T10:52:41;28.50;28.50
70456;DHT22;57916;51.996;5.180;2023-07-02T10:55:08;28.40;28.10
70456;DHT22;57916;51.996;5.180;2023-07-02T10:57:36;28.20;27.90
70456;DHT22;57916;51.996;5.180;2023-07-02T11:00:07;28.10;29.50
70456;DHT22;57916;51.996;5.180;2023-07-02T11:02:37;28.20;29.10
70456;DHT22;57916;51.996;5.180;2023-07-02T11:05:06;28.30;29.00
70456;DHT22;57916;51.996;5.180;2023-07-02T11:07:33;28.30;28.60
70456;DHT22;57916;51.996;5.180;2023-07-02T11:10:00;28.10;28.60
70456;DHT22;57916;51.996;5.180;2023-07-02T11:12:31;28.00;29.50
70456;DHT22;57916;51.996;5.180;2023-07-02T11:15:11;27.90;28.50
70456;DHT22;57916;51.996;5.180;2023-07-02T11:17:39;27.60;28.50
70456;DHT22;57916;51.996;5.180;2023-07-02T11:20:09;27.40;28.90
70456;DHT22;57916;51.996;5.180;2023-07-02T11:22:38;27.30;28.70
70456;DHT22;57916;51.996;5.180;2023-07-02T11:25:13;27.20;28.40
70456;DHT22;57916;51.996;5.180;2023-07-02T11:27:41;27.10;29.80
70456;DHT22;57916;51.996;5.180;2023-07-02T11:30:09;27.00;29.60
70456;DHT22;57916;51.996;5.180;2023-07-02T11:32:53;26.90;29.30
70456;DHT22;57916;51.996;5.180;2023-07-02T11:35:22;26.70;29.50
70456;DHT22;57916;51.996;5.180;2023-07-02T11:38:00;26.60;30.00
70456;DHT22;57916;51.996;5.180;2023-07-02T11:40:27;26.50;29.60
70456;DHT22;57916;51.996;5.180;2023-07-02T11:42:54;26.60;29.70
70456;DHT22;57916;51.996;5.180;2023-07-02T11:45:20;26.70;30.00
70456;DHT22;57916;51.996;5.180;2023-07-02T11:47:48;26.90;30.40
70456;DHT22;57916;51.996;5.180;2023-07-02T11:50:15;27.10;29.60
70456;DHT22;57916;51.996;5.180;2023-07-02T11:52:52;27.10;29.90
70456;DHT22;57916;51.996;5.180;2023-07-02T11:55:20;27.10;30.00
70456;DHT22;57916;51.996;5.180;2023-07-02T11:57:47;27.10;29.70
70456;DHT22;57916;51.996;5.180;2023-07-02T12:00:16;27.10;29.50
70456;DHT22;57916;51.996;5.180;2023-07-02T12:02:43;27.00;29.40
70456;DHT22;57916;51.996;5.180;2023-07-02T12:05:10;27.10;29.40
70456;DHT22;57916;51.996;5.180;2023-07-02T12:07:39;27.10;29.80
70456;DHT22;57916;51.996;5.180;2023-07-02T12:10:07;27.20;30.30
70456;DHT22;57916;51.996;5.180;2023-07-02T12:12:34;27.30;29.20
70456;DHT22;57916;51.996;5.180;2023-07-02T12:15:02;27.30;29.20
70456;DHT22;57916;51.996;5.180;2023-07-02T12:17:29;27.20;29.50
70456;DHT22;57916;51.996;5.180;2023-07-02T12:19:57;27.00;29.00
70456;DHT22;57916;51.996;5.180;2023-07-02T12:22:24;26.90;29.20
70456;DHT22;57916;51.996;5.180;2023-07-02T12:24:51;26.60;29.90
70456;DHT22;57916;51.996;5.180;2023-07-02T12:27:20;26.60;30.00
70456;DHT22;57916;51.996;5.180;2023-07-02T12:29:47;26.50;29.80
70456;DHT22;57916;51.996;5.180;2023-07-02T12:32:15;26.40;30.50
70456;DHT22;57916;51.996;5.180;2023-07-02T12:34:42;26.40;30.90
70456;DHT22;57916;51.996;5.180;2023-07-02T12:37:09;26.50;30.40
70456;DHT22;57916;51.996;5.180;2023-07-02T12:39:36;26.50;30.60
70456;DHT22;57916;51.996;5.180;2023-07-02T12:42:03;26.50;30.20
70456;DHT22;57916;51.996;5.180;2023-07-02T12:44:30;26.40;29.90
70456;DHT22;57916;51.996;5.180;2023-07-02T12:46:57;26.40;32.00
70456;DHT22;57916;51.996;5.180;2023-07-02T12:49:24;26.40;31.50
70456;DHT22;57916;51.996;5.180;2023-07-02T12:51:51;26.40;31.50
70456;DHT22;57916;51.996;5.180;2023-07-02T12:54:18;26.40;31.20
70456;DHT22;57916;51.996;5.180;2023-07-02T12:56:45;26.40;30.90
70456;DHT22;57916;51.996;5.180;2023-07-02T12:59:14;26.30;31.60
70456;DHT22;57916;51.996;5.180;2023-07-02T13:01:41;26.20;32.60
70456;DHT22;57916;51.996;5.180;2023-07-02T13:04:08;26.20;32.50
70456;DHT22;57916;51.996;5.180;2023-07-02T13:06:35;26.20;33.00
70456;DHT22;57916;51.996;5.180;2023-07-02T13:09:07;26.20;32.50
70456;DHT22;57916;51.996;5.180;2023-07-02T13:11:35;26.20;32.70
70456;DHT22;57916;51.996;5.180;2023-07-02T13:14:02;26.20;32.40
70456;DHT22;57916;51.996;5.180;2023-07-02T13:16:29;26.10;31.80
70456;DHT22;57916;51.996;5.180;2023-07-02T13:18:56;26.00;31.80
70456;DHT22;57916;51.996;5.180;2023-07-02T13:21:23;25.90;31.90
70456;DHT22;57916;51.996;5.180;2023-07-02T13:23:50;25.80;32.00
70456;DHT22;57916;51.996;5.180;2023-07-02T13:26:17;25.70;33.20
70456;DHT22;57916;51.996;5.180;2023-07-02T13:28:44;25.50;33.20
70456;DHT22;57916;51.996;5.180;2023-07-02T13:31:14;25.50;33.80
70456;DHT22;57916;51.996;5.180;2023-07-02T13:33:42;25.50;34.10
70456;DHT22;57916;51.996;5.180;2023-07-02T13:36:10;25.60;33.90
70456;DHT22;57916;51.996;5.180;2023-07-02T13:38:37;25.60;33.80
70456;DHT22;57916;51.996;5.180;2023-07-02T13:41:04;25.70;34.20
70456;DHT22;57916;51.996;5.180;2023-07-02T13:43:31;25.70;33.80
70456;DHT22;57916;51.996;5.180;2023-07-02T13:45:58;25.60;32.10
70456;DHT22;57916;51.996;5.180;2023-07-02T13:48:26;25.50;33.00
70456;DHT22;57916;51.996;5.180;2023-07-02T13:50:56;25.40;33.50
70456;DHT22;57916;51.996;5.180;2023-07-02T13:53:22;25.30;33.00
70456;DHT22;57916;51.996;5.180;2023-07-02T13:55:49;25.20;33.80
70456;DHT22;57916;51.996;5.180;2023-07-02T13:58:17;25.20;35.30
70456;DHT22;57916;51.996;5.180;2023-07-02T14:00:56;25.30;33.00
70456;DHT22;57916;51.996;5.180;2023-07-02T14:03:23;25.30;33.30
70456;DHT22;57916;51.996;5.180;2023-07-02T14:05:50;25.30;32.30
70456;DHT22;57916;51.996;5.180;2023-07-02T14:08:18;25.20;32.70
70456;DHT22;57916;51.996;5.180;2023-07-02T14:10:45;25.20;32.10
70456;DHT22;57916;51.996;5.180;2023-07-02T14:13:13;25.20;33.00
70456;DHT22;57916;51.996;5.180;2023-07-02T14:15:40;25.10;30.70
70456;DHT22;57916;51.996;5.180;2023-07-02T14:18:07;25.10;32.20
70456;DHT22;57916;51.996;5.180;2023-07-02T14:20:33;25.10;33.10
70456;DHT22;57916;51.996;5.180;2023-07-02T14:23:00;25.20;33.20
70456;DHT22;57916;51.996;5.180;2023-07-02T14:25:27;25.20;31.20
70456;DHT22;57916;51.996;5.180;2023-07-02T14:28:14;25.20;31.10
70456;DHT22;57916;51.996;5.180;2023-07-02T14:30:41;25.20;30.30
70456;DHT22;57916;51.996;5.180;2023-07-02T14:33:09;25.20;30.60
70456;DHT22;57916;51.996;5.180;2023-07-02T14:35:36;25.10;31.70
70456;DHT22;57916;51.996;5.180;2023-07-02T14:38:03;25.00;31.40
70456;DHT22;57916;51.996;5.180;2023-07-02T14:40:31;24.90;32.20
70456;DHT22;57916;51.996;5.180;2023-07-02T14:42:58;24.80;31.80
70456;DHT22;57916;51.996;5.180;2023-07-02T14:45:26;24.80;32.40
70456;DHT22;57916;51.996;5.180;2023-07-02T14:47:53;24.80;31.90
70456;DHT22;57916;51.996;5.180;2023-07-02T14:50:20;24.70;32.20
70456;DHT22;57916;51.996;5.180;2023-07-02T14:52:47;24.80;32.70
70456;DHT22;57916;51.996;5.180;2023-07-02T14:55:14;24.80;32.80
70456;DHT22;57916;51.996;5.180;2023-07-02T14:57:41;24.70;32.10
70456;DHT22;57916;51.996;5.180;2023-07-02T15:00:08;24.60;32.20
70456;DHT22;57916;51.996;5.180;2023-07-02T15:02:36;24.60;33.70
70456;DHT22;57916;51.996;5.180;2023-07-02T15:05:03;24.70;33.60
70456;DHT22;57916;51.996;5.180;2023-07-02T15:07:30;24.70;33.60
70456;DHT22;57916;51.996;5.180;2023-07-02T15:09:57;24.70;34.10
70456;DHT22;57916;51.996;5.180;2023-07-02T15:12:24;24.70;33.30
70456;DHT22;57916;51.996;5.180;2023-07-02T15:14:51;24.70;33.70
70456;DHT22;57916;51.996;5.180;2023-07-02T15:17:18;24.70;33.90
70456;DHT22;57916;51.996;5.180;2023-07-02T15:19:45;24.70;33.80
70456;DHT22;57916;51.996;5.180;2023-07-02T15:22:12;24.70;33.70
70456;DHT22;57916;51.996;5.180;2023-07-02T15:24:39;24.60;33.30
70456;DHT22;57916;51.996;5.180;2023-07-02T15:27:06;24.50;33.90
70456;DHT22;57916;51.996;5.180;2023-07-02T15:29:34;24.50;34.50
70456;DHT22;57916;51.996;5.180;2023-07-02T15:32:01;24.50;35.30
70456;DHT22;57916;51.996;5.180;2023-07-02T15:34:28;24.50;35.10
70456;DHT22;57916;51.996;5.180;2023-07-02T15:36:55;24.60;34.90
70456;DHT22;57916;51.996;5.180;2023-07-02T15:39:22;24.60;34.50
70456;DHT22;57916;51.996;5.180;2023-07-02T15:41:51;24.60;35.30